createdAt,value
2018-03-28T00:00:33.470Z,996.33
2018-03-28T00:01:33.511Z,996.33
2018-03-28T00:02:33.461Z,996.32
2018-03-28T00:03:33.415Z,996.31
2018-03-28T00:04:33.396Z,996.32
2018-03-28T00:05:33.378Z,996.31
2018-03-28T00:06:33.359Z,996.27
2018-03-28T00:07:33.343Z,996.28
2018-03-28T00:08:33.324Z,996.22
2018-03-28T00:09:33.304Z,996.17
2018-03-28T00:10:33.286Z,996.19
2018-03-28T00:11:33.268Z,996.2
2018-03-28T00:12:33.250Z,996.21
2018-03-28T00:13:33.231Z,996.21
2018-03-28T00:14:33.222Z,996.22
2018-03-28T00:15:33.196Z,996.23
2018-03-28T00:16:33.177Z,996.24
2018-03-28T00:17:33.158Z,996.23
2018-03-28T00:18:33.140Z,996.21
2018-03-28T00:19:33.122Z,996.19
2018-03-28T00:20:33.103Z,996.21
2018-03-28T00:21:33.085Z,996.2
2018-03-28T00:22:33.067Z,996.21
2018-03-28T00:23:33.048Z,996.18
2018-03-28T00:24:33.030Z,996.17
2018-03-28T00:25:33.012Z,996.17
2018-03-28T00:26:33.028Z,996.16
2018-03-28T00:27:33.068Z,996.11
2018-03-28T00:28:32.968Z,996.11
2018-03-28T00:29:32.937Z,996.11
2018-03-28T00:30:32.920Z,996.1
2018-03-28T00:31:32.908Z,996.1
2018-03-28T00:32:32.883Z,996.06
2018-03-28T00:33:32.862Z,996.07
2018-03-28T00:34:32.861Z,996.1
2018-03-28T00:35:32.828Z,996.08
2018-03-28T00:36:32.812Z,996.07
2018-03-28T00:37:32.793Z,996.03
2018-03-28T00:38:32.774Z,996.06
2018-03-28T00:39:32.753Z,996
2018-03-28T00:40:32.792Z,996.02
2018-03-28T00:41:32.716Z,996.01
2018-03-28T00:42:32.700Z,996
2018-03-28T00:43:32.679Z,996.01
2018-03-28T00:44:32.668Z,996.01
2018-03-28T00:45:32.642Z,995.98
2018-03-28T00:46:32.634Z,995.95
2018-03-28T00:47:32.615Z,995.95
2018-03-28T00:48:32.590Z,995.87
2018-03-28T00:49:32.571Z,995.88
2018-03-28T00:50:32.552Z,995.89
2018-03-28T00:51:32.531Z,995.86
2018-03-28T00:52:32.517Z,995.87
2018-03-28T00:53:32.499Z,995.87
2018-03-28T00:54:32.477Z,995.85
2018-03-28T00:55:32.457Z,995.83
2018-03-28T00:56:32.440Z,995.81
2018-03-28T00:57:32.424Z,995.82
2018-03-28T00:58:32.402Z,995.81
2018-03-28T00:59:32.384Z,995.83
2018-03-28T01:00:32.367Z,995.83
2018-03-28T01:01:32.349Z,995.81
2018-03-28T01:02:32.328Z,995.84
2018-03-28T01:03:32.310Z,995.83
2018-03-28T01:04:32.292Z,995.81
2018-03-28T01:05:32.270Z,995.8
2018-03-28T01:06:32.253Z,995.82
2018-03-28T01:07:32.237Z,995.85
2018-03-28T01:08:32.216Z,995.82
2018-03-28T01:09:32.196Z,995.78
2018-03-28T01:10:32.179Z,995.81
2018-03-28T01:11:32.160Z,995.8
2018-03-28T01:12:32.142Z,995.78
2018-03-28T01:13:32.132Z,995.77
2018-03-28T01:14:32.106Z,995.77
2018-03-28T01:15:32.097Z,995.76
2018-03-28T01:16:32.068Z,995.79
2018-03-28T01:17:32.059Z,995.82
2018-03-28T01:18:32.031Z,995.85
2018-03-28T01:19:32.047Z,995.82
2018-03-28T01:20:32.000Z,995.82
2018-03-28T01:21:31.976Z,995.85
2018-03-28T01:22:31.956Z,995.81
2018-03-28T01:23:31.935Z,995.82
2018-03-28T01:24:31.923Z,995.8
2018-03-28T01:25:31.910Z,995.74
2018-03-28T01:26:31.885Z,995.76
2018-03-28T01:27:31.861Z,995.74
2018-03-28T01:28:31.844Z,995.72
2018-03-28T01:29:31.830Z,995.77
2018-03-28T01:30:31.810Z,995.76
2018-03-28T01:31:31.788Z,995.72
2018-03-28T01:32:31.770Z,995.74
2018-03-28T01:33:31.753Z,995.76
2018-03-28T01:34:31.731Z,995.73
2018-03-28T01:35:31.719Z,995.75
2018-03-28T01:36:31.761Z,995.72
2018-03-28T01:37:31.680Z,995.74
2018-03-28T01:38:31.657Z,995.68
2018-03-28T01:39:31.639Z,995.65
2018-03-28T01:40:31.627Z,995.64
2018-03-28T01:41:31.604Z,995.7
2018-03-28T01:42:31.590Z,995.64
2018-03-28T01:43:31.564Z,995.63
2018-03-28T01:44:31.547Z,995.64
2018-03-28T01:45:31.528Z,995.66
2018-03-28T01:46:31.511Z,995.6
2018-03-28T01:47:31.491Z,995.61
2018-03-28T01:48:31.477Z,995.64
2018-03-28T01:49:31.488Z,995.64
2018-03-28T01:50:31.441Z,995.65
2018-03-28T01:51:31.417Z,995.63
2018-03-28T01:52:31.398Z,995.63
2018-03-28T01:53:31.402Z,995.6
2018-03-28T01:54:31.364Z,995.59
2018-03-28T01:55:31.382Z,995.54
2018-03-28T01:56:31.324Z,995.62
2018-03-28T01:57:31.310Z,995.58
2018-03-28T01:58:31.366Z,995.57
2018-03-28T01:59:31.270Z,995.56
2018-03-28T02:00:31.251Z,995.57
2018-03-28T02:01:31.233Z,995.54
2018-03-28T02:02:31.217Z,995.55
2018-03-28T02:03:31.197Z,995.5
2018-03-28T02:04:31.381Z,995.5
2018-03-28T02:05:31.158Z,995.47
2018-03-28T02:06:31.145Z,995.47
2018-03-28T02:07:31.148Z,995.51
2018-03-28T02:08:31.102Z,995.52
2018-03-28T02:09:31.086Z,995.52
2018-03-28T02:10:31.066Z,995.52
2018-03-28T02:11:31.063Z,995.52
2018-03-28T02:12:31.061Z,995.49
2018-03-28T02:13:31.011Z,995.51
2018-03-28T02:14:30.993Z,995.49
2018-03-28T02:15:30.976Z,995.51
2018-03-28T02:16:30.955Z,995.54
2018-03-28T02:17:30.995Z,995.57
2018-03-28T02:18:30.918Z,995.62
2018-03-28T02:19:30.899Z,995.63
2018-03-28T02:20:30.881Z,995.63
2018-03-28T02:21:30.863Z,995.61
2018-03-28T02:22:30.867Z,995.61
2018-03-28T02:23:30.829Z,995.64
2018-03-28T02:24:30.812Z,995.64
2018-03-28T02:25:30.789Z,995.67
2018-03-28T02:26:30.776Z,995.63
2018-03-28T02:27:30.767Z,995.64
2018-03-28T02:28:30.762Z,995.64
2018-03-28T02:29:30.715Z,995.65
2018-03-28T02:30:30.714Z,995.65
2018-03-28T02:31:30.681Z,995.67
2018-03-28T02:32:30.662Z,995.64
2018-03-28T02:33:30.643Z,995.66
2018-03-28T02:34:30.677Z,995.67
2018-03-28T02:35:30.607Z,995.64
2018-03-28T02:36:30.626Z,995.64
2018-03-28T02:37:30.653Z,995.64
2018-03-28T02:38:30.550Z,995.57
2018-03-28T02:39:30.536Z,995.58
2018-03-28T02:40:30.514Z,995.57
2018-03-28T02:41:30.509Z,995.54
2018-03-28T02:42:30.488Z,995.56
2018-03-28T02:43:30.459Z,995.63
2018-03-28T02:44:30.468Z,995.61
2018-03-28T02:45:30.420Z,995.63
2018-03-28T02:46:30.402Z,995.66
2018-03-28T02:47:30.384Z,995.64
2018-03-28T02:48:30.383Z,995.68
2018-03-28T02:49:30.385Z,995.65
2018-03-28T02:50:30.362Z,995.64
2018-03-28T02:51:30.343Z,995.6
2018-03-28T02:52:30.295Z,995.64
2018-03-28T02:53:30.273Z,995.61
2018-03-28T02:54:30.255Z,995.65
2018-03-28T02:55:30.236Z,995.58
2018-03-28T02:56:30.269Z,995.61
2018-03-28T02:57:30.199Z,995.6
2018-03-28T02:58:30.199Z,995.57
2018-03-28T02:59:30.162Z,995.54
2018-03-28T03:00:30.143Z,995.6
2018-03-28T03:01:30.126Z,995.57
2018-03-28T03:02:30.108Z,995.51
2018-03-28T03:03:30.087Z,995.53
2018-03-28T03:04:30.121Z,995.54
2018-03-28T03:05:30.051Z,995.47
2018-03-28T03:06:30.071Z,995.5
2018-03-28T03:07:30.016Z,995.52
2018-03-28T03:08:29.998Z,995.46
2018-03-28T03:09:29.977Z,995.48
2018-03-28T03:10:29.959Z,995.5
2018-03-28T03:11:29.940Z,995.49
2018-03-28T03:12:29.922Z,995.49
2018-03-28T03:13:29.950Z,995.45
2018-03-28T03:14:29.888Z,995.43
2018-03-28T03:15:29.867Z,995.47
2018-03-28T03:16:29.846Z,995.42
2018-03-28T03:17:29.853Z,995.4
2018-03-28T03:18:29.822Z,995.38
2018-03-28T03:19:29.794Z,995.33
2018-03-28T03:20:29.802Z,995.4
2018-03-28T03:21:29.767Z,995.35
2018-03-28T03:22:29.739Z,995.34
2018-03-28T03:23:29.748Z,995.37
2018-03-28T03:24:29.701Z,995.42
2018-03-28T03:25:29.680Z,995.39
2018-03-28T03:26:29.664Z,995.39
2018-03-28T03:27:29.643Z,995.36
2018-03-28T03:28:29.627Z,995.33
2018-03-28T03:29:29.640Z,995.36
2018-03-28T03:30:29.589Z,995.33
2018-03-28T03:31:29.660Z,995.36
2018-03-28T03:32:29.664Z,995.34
2018-03-28T03:33:29.536Z,995.32
2018-03-28T03:34:29.514Z,995.32
2018-03-28T03:35:29.495Z,995.32
2018-03-28T03:36:29.476Z,995.33
2018-03-28T03:37:29.461Z,995.38
2018-03-28T03:38:29.439Z,995.39
2018-03-28T03:39:29.420Z,995.42
2018-03-28T03:40:29.410Z,995.39
2018-03-28T03:41:29.382Z,995.39
2018-03-28T03:42:29.364Z,995.39
2018-03-28T03:43:29.406Z,995.43
2018-03-28T03:44:29.518Z,995.42
2018-03-28T03:45:29.310Z,995.42
2018-03-28T03:46:29.291Z,995.44
2018-03-28T03:47:29.293Z,995.44
2018-03-28T03:48:29.252Z,995.45
2018-03-28T03:49:29.235Z,995.44
2018-03-28T03:50:29.216Z,995.49
2018-03-28T03:51:29.196Z,995.52
2018-03-28T03:52:29.383Z,995.54
2018-03-28T03:53:29.161Z,995.53
2018-03-28T03:54:29.141Z,995.54
2018-03-28T03:55:29.124Z,995.5
2018-03-28T03:56:29.105Z,995.55
2018-03-28T03:57:29.085Z,995.52
2018-03-28T03:58:29.068Z,995.49
2018-03-28T03:59:29.073Z,995.51
2018-03-28T04:00:29.031Z,995.5
2018-03-28T04:01:29.012Z,995.52
2018-03-28T04:02:28.996Z,995.57
2018-03-28T04:03:28.975Z,995.58
2018-03-28T04:04:29.157Z,995.54
2018-03-28T04:05:28.938Z,995.57
2018-03-28T04:06:28.921Z,995.55
2018-03-28T04:07:28.906Z,995.52
2018-03-28T04:08:28.883Z,995.55
2018-03-28T04:09:28.865Z,995.49
2018-03-28T04:10:28.852Z,995.54
2018-03-28T04:11:28.826Z,995.54
2018-03-28T04:12:28.811Z,995.51
2018-03-28T04:13:28.791Z,995.53
2018-03-28T04:14:28.799Z,995.51
2018-03-28T04:15:28.755Z,995.52
2018-03-28T04:16:28.735Z,995.56
2018-03-28T04:17:28.722Z,995.54
2018-03-28T04:18:28.697Z,995.53
2018-03-28T04:19:28.680Z,995.51
2018-03-28T04:20:28.662Z,995.54
2018-03-28T04:21:28.644Z,995.57
2018-03-28T04:22:28.624Z,995.59
2018-03-28T04:23:28.606Z,995.57
2018-03-28T04:24:28.589Z,995.57
2018-03-28T04:25:28.569Z,995.55
2018-03-28T04:26:28.556Z,995.52
2018-03-28T04:27:28.532Z,995.53
2018-03-28T04:28:28.513Z,995.55
2018-03-28T04:29:28.496Z,995.56
2018-03-28T04:30:28.478Z,995.56
2018-03-28T04:31:28.458Z,995.55
2018-03-28T04:32:28.444Z,995.58
2018-03-28T04:33:28.421Z,995.53
2018-03-28T04:34:28.404Z,995.58
2018-03-28T04:35:28.389Z,995.58
2018-03-28T04:36:28.368Z,995.63
2018-03-28T04:37:28.351Z,995.58
2018-03-28T04:38:28.331Z,995.59
2018-03-28T04:39:28.314Z,995.59
2018-03-28T04:40:28.295Z,995.56
2018-03-28T04:41:28.275Z,995.59
2018-03-28T04:42:28.257Z,995.56
2018-03-28T04:43:28.243Z,995.55
2018-03-28T04:44:28.219Z,995.5
2018-03-28T04:45:28.201Z,995.5
2018-03-28T04:46:28.183Z,995.45
2018-03-28T04:47:28.170Z,995.45
2018-03-28T04:48:28.151Z,995.45
2018-03-28T04:49:28.128Z,995.4
2018-03-28T04:50:28.112Z,995.43
2018-03-28T04:51:28.093Z,995.45
2018-03-28T04:52:28.074Z,995.43
2018-03-28T04:53:28.057Z,995.44
2018-03-28T04:54:28.047Z,995.47
2018-03-28T04:55:28.022Z,995.48
2018-03-28T04:56:28.002Z,995.43
2018-03-28T04:57:27.984Z,995.48
2018-03-28T04:58:28.010Z,995.5
2018-03-28T04:59:27.948Z,995.54
2018-03-28T05:00:27.930Z,995.47
2018-03-28T05:01:27.912Z,995.56
2018-03-28T05:02:27.892Z,995.52
2018-03-28T05:03:27.875Z,995.53
2018-03-28T05:04:27.862Z,995.57
2018-03-28T05:05:27.839Z,995.56
2018-03-28T05:06:27.819Z,995.55
2018-03-28T05:07:27.801Z,995.53
2018-03-28T05:08:27.784Z,995.54
2018-03-28T05:09:27.768Z,995.5
2018-03-28T05:10:27.747Z,995.55
2018-03-28T05:11:27.732Z,995.53
2018-03-28T05:12:27.713Z,995.62
2018-03-28T05:13:27.694Z,995.64
2018-03-28T05:14:27.674Z,995.61
2018-03-28T05:15:27.658Z,995.61
2018-03-28T05:16:27.639Z,995.59
2018-03-28T05:17:27.619Z,995.57
2018-03-28T05:18:27.602Z,995.51
2018-03-28T05:19:27.584Z,995.52
2018-03-28T05:20:27.568Z,995.54
2018-03-28T05:21:27.546Z,995.57
2018-03-28T05:22:27.537Z,995.53
2018-03-28T05:23:27.517Z,995.55
2018-03-28T05:24:27.495Z,995.56
2018-03-28T05:25:27.544Z,995.57
2018-03-28T05:26:27.456Z,995.58
2018-03-28T05:27:27.438Z,995.6
2018-03-28T05:28:27.545Z,995.61
2018-03-28T05:29:27.400Z,995.67
2018-03-28T05:30:27.383Z,995.64
2018-03-28T05:31:27.389Z,995.61
2018-03-28T05:32:27.350Z,995.6
2018-03-28T05:33:27.332Z,995.61
2018-03-28T05:34:27.352Z,995.59
2018-03-28T05:35:27.294Z,995.64
2018-03-28T05:36:27.275Z,995.62
2018-03-28T05:37:27.258Z,995.65
2018-03-28T05:38:27.237Z,995.63
2018-03-28T05:39:27.220Z,995.67
2018-03-28T05:40:27.200Z,995.65
2018-03-28T05:41:27.181Z,995.67
2018-03-28T05:42:27.163Z,995.69
2018-03-28T05:43:27.145Z,995.68
2018-03-28T05:44:27.131Z,995.65
2018-03-28T05:45:27.111Z,995.65
2018-03-28T05:46:27.088Z,995.63
2018-03-28T05:47:27.071Z,995.65
2018-03-28T05:48:27.054Z,995.65
2018-03-28T05:49:27.034Z,995.7
2018-03-28T05:50:27.018Z,995.67
2018-03-28T05:51:26.997Z,995.65
2018-03-28T05:52:26.979Z,995.65
2018-03-28T05:53:26.960Z,995.65
2018-03-28T05:54:26.944Z,995.66
2018-03-28T05:55:26.927Z,995.68
2018-03-28T05:56:26.906Z,995.66
2018-03-28T05:57:26.886Z,995.66
2018-03-28T05:58:26.870Z,995.71
2018-03-28T05:59:26.854Z,995.71
2018-03-28T06:00:26.838Z,995.72
2018-03-28T06:01:26.814Z,995.7
2018-03-28T06:02:26.797Z,995.68
2018-03-28T06:03:26.777Z,995.67
2018-03-28T06:04:26.962Z,995.73
2018-03-28T06:05:26.739Z,995.71
2018-03-28T06:06:26.721Z,995.73
2018-03-28T06:07:26.728Z,995.77
2018-03-28T06:08:26.686Z,995.7
2018-03-28T06:09:26.670Z,995.74
2018-03-28T06:10:26.652Z,995.77
2018-03-28T06:11:26.631Z,995.76
2018-03-28T06:12:26.610Z,995.79
2018-03-28T06:13:26.595Z,995.75
2018-03-28T06:14:26.572Z,995.73
2018-03-28T06:15:26.553Z,995.76
2018-03-28T06:16:26.601Z,995.78
2018-03-28T06:17:26.517Z,995.77
2018-03-28T06:18:26.591Z,995.74
2018-03-28T06:19:26.551Z,995.72
2018-03-28T06:20:26.462Z,995.75
2018-03-28T06:21:26.462Z,995.74
2018-03-28T06:22:26.428Z,995.72
2018-03-28T06:23:26.412Z,995.69
2018-03-28T06:24:26.389Z,995.7
2018-03-28T06:25:26.375Z,995.71
2018-03-28T06:26:26.353Z,995.75
2018-03-28T06:27:26.332Z,995.74
2018-03-28T06:28:26.370Z,995.71
2018-03-28T06:29:26.306Z,995.71
2018-03-28T06:30:26.277Z,995.72
2018-03-28T06:31:26.263Z,995.71
2018-03-28T06:32:26.242Z,995.72
2018-03-28T06:33:26.228Z,995.71
2018-03-28T06:34:26.204Z,995.7
2018-03-28T06:35:26.188Z,995.71
2018-03-28T06:36:26.169Z,995.63
2018-03-28T06:37:26.151Z,995.7
2018-03-28T06:38:26.132Z,995.65
2018-03-28T06:39:26.142Z,995.65
2018-03-28T06:40:26.097Z,995.66
2018-03-28T06:41:26.078Z,995.69
2018-03-28T06:42:26.059Z,995.63
2018-03-28T06:43:26.040Z,995.67
2018-03-28T06:44:26.021Z,995.61
2018-03-28T06:45:26.002Z,995.63
2018-03-28T06:46:25.985Z,995.65
2018-03-28T06:47:25.968Z,995.57
2018-03-28T06:48:25.948Z,995.54
2018-03-28T06:49:25.932Z,995.54
2018-03-28T06:50:25.911Z,995.56
2018-03-28T06:51:25.895Z,995.54
2018-03-28T06:52:25.876Z,995.54
2018-03-28T06:53:25.856Z,995.56
2018-03-28T06:54:25.841Z,995.5
2018-03-28T06:55:25.820Z,995.54
2018-03-28T06:56:25.801Z,995.56
2018-03-28T06:57:25.833Z,995.56
2018-03-28T06:58:25.809Z,995.56
2018-03-28T06:59:25.756Z,995.56
2018-03-28T07:00:25.731Z,995.54
2018-03-28T07:01:25.709Z,995.58
2018-03-28T07:02:25.694Z,995.55
2018-03-28T07:03:25.675Z,995.57
2018-03-28T07:04:25.663Z,995.52
2018-03-28T07:05:25.637Z,995.51
2018-03-28T07:06:25.616Z,995.5
2018-03-28T07:07:25.599Z,995.46
2018-03-28T07:08:25.582Z,995.46
2018-03-28T07:09:25.577Z,995.45
2018-03-28T07:10:25.545Z,995.45
2018-03-28T07:11:25.529Z,995.45
2018-03-28T07:12:25.507Z,995.42
2018-03-28T07:13:25.488Z,995.38
2018-03-28T07:14:25.469Z,995.43
2018-03-28T07:15:25.451Z,995.41
2018-03-28T07:16:25.433Z,995.38
2018-03-28T07:17:25.579Z,995.39
2018-03-28T07:18:25.402Z,995.41
2018-03-28T07:19:25.379Z,995.44
2018-03-28T07:20:25.361Z,995.41
2018-03-28T07:21:25.342Z,995.45
2018-03-28T07:22:25.324Z,995.44
2018-03-28T07:23:25.305Z,995.46
2018-03-28T07:24:25.290Z,995.42
2018-03-28T07:25:25.319Z,995.39
2018-03-28T07:26:25.256Z,995.37
2018-03-28T07:27:25.239Z,995.34
2018-03-28T07:28:25.217Z,995.36
2018-03-28T07:29:25.207Z,995.4
2018-03-28T07:30:25.187Z,995.44
2018-03-28T07:31:25.162Z,995.4
2018-03-28T07:32:25.144Z,995.37
2018-03-28T07:33:25.126Z,995.33
2018-03-28T07:34:25.147Z,995.35
2018-03-28T07:35:25.112Z,995.38
2018-03-28T07:36:25.073Z,995.37
2018-03-28T07:37:25.055Z,995.37
2018-03-28T07:38:25.043Z,995.4
2018-03-28T07:39:25.025Z,995.43
2018-03-28T07:40:25.024Z,995.4
2018-03-28T07:41:24.996Z,995.43
2018-03-28T07:42:24.976Z,995.43
2018-03-28T07:43:24.950Z,995.45
2018-03-28T07:44:24.932Z,995.41
2018-03-28T07:45:24.930Z,995.43
2018-03-28T07:46:24.897Z,995.42
2018-03-28T07:47:24.880Z,995.4
2018-03-28T07:48:24.863Z,995.42
2018-03-28T07:49:25.067Z,995.43
2018-03-28T07:50:24.828Z,995.4
2018-03-28T07:51:24.818Z,995.4
2018-03-28T07:52:24.793Z,995.34
2018-03-28T07:53:24.777Z,995.32
2018-03-28T07:54:24.757Z,995.35
2018-03-28T07:55:24.739Z,995.32
2018-03-28T07:56:24.723Z,995.29
2018-03-28T07:57:24.708Z,995.29
2018-03-28T07:58:24.694Z,995.25
2018-03-28T07:59:24.672Z,995.32
2018-03-28T08:00:24.657Z,995.28
2018-03-28T08:01:24.637Z,995.31
2018-03-28T08:02:24.624Z,995.29
2018-03-28T08:03:24.604Z,995.34
2018-03-28T08:04:24.790Z,995.32
2018-03-28T08:05:24.568Z,995.34
2018-03-28T08:06:24.551Z,995.38
2018-03-28T08:07:24.534Z,995.36
2018-03-28T08:08:24.519Z,995.35
2018-03-28T08:09:24.506Z,995.38
2018-03-28T08:10:24.621Z,995.38
2018-03-28T08:11:24.508Z,995.4
2018-03-28T08:12:24.450Z,995.43
2018-03-28T08:13:24.430Z,995.42
2018-03-28T08:14:24.414Z,995.4
2018-03-28T08:15:24.397Z,995.4
2018-03-28T08:16:24.377Z,995.4
2018-03-28T08:17:24.363Z,995.35
2018-03-28T08:18:24.382Z,995.34
2018-03-28T08:19:24.370Z,995.26
2018-03-28T08:20:24.308Z,995.31
2018-03-28T08:21:24.292Z,995.3
2018-03-28T08:22:24.275Z,995.26
2018-03-28T08:23:24.255Z,995.23
2018-03-28T08:24:24.253Z,995.31
2018-03-28T08:25:24.222Z,995.34
2018-03-28T08:26:24.232Z,995.36
2018-03-28T08:27:24.188Z,995.39
2018-03-28T08:28:24.201Z,995.41
2018-03-28T08:29:24.155Z,995.39
2018-03-28T08:30:24.140Z,995.43
2018-03-28T08:31:24.120Z,995.43
2018-03-28T08:32:24.102Z,995.44
2018-03-28T08:33:24.085Z,995.39
2018-03-28T08:34:24.069Z,995.4
2018-03-28T08:35:24.119Z,995.38
2018-03-28T08:36:24.035Z,995.35
2018-03-28T08:37:24.017Z,995.33
2018-03-28T08:38:23.997Z,995.32
2018-03-28T08:39:23.982Z,995.32
2018-03-28T08:40:23.967Z,995.27
2018-03-28T08:41:23.949Z,995.28
2018-03-28T08:42:23.928Z,995.25
2018-03-28T08:43:23.912Z,995.23
2018-03-28T08:44:23.896Z,995.29
2018-03-28T08:45:23.877Z,995.25
2018-03-28T08:46:23.864Z,995.22
2018-03-28T08:47:23.844Z,995.25
2018-03-28T08:48:23.828Z,995.21
2018-03-28T08:49:23.809Z,995.23
2018-03-28T08:50:23.793Z,995.28
2018-03-28T08:51:23.775Z,995.28
2018-03-28T08:52:23.758Z,995.27
2018-03-28T08:53:23.739Z,995.24
2018-03-28T08:54:23.723Z,995.32
2018-03-28T08:55:23.707Z,995.32
2018-03-28T08:56:23.692Z,995.28
2018-03-28T08:57:23.673Z,995.3
2018-03-28T08:58:23.657Z,995.27
2018-03-28T08:59:23.653Z,995.29
2018-03-28T09:00:23.621Z,995.23
2018-03-28T09:01:23.605Z,995.21
2018-03-28T09:02:23.588Z,995.22
2018-03-28T09:03:23.570Z,995.22
2018-03-28T09:04:23.554Z,995.21
2018-03-28T09:05:23.536Z,995.2
2018-03-28T09:06:23.532Z,995.19
2018-03-28T09:07:23.502Z,995.15
2018-03-28T09:08:23.486Z,995.16
2018-03-28T09:09:23.469Z,995.19
2018-03-28T09:10:23.453Z,995.15
2018-03-28T09:11:23.434Z,995.14
2018-03-28T09:12:23.418Z,995.15
2018-03-28T09:13:23.401Z,995.09
2018-03-28T09:14:23.385Z,995.1
2018-03-28T09:15:23.369Z,995.08
2018-03-28T09:16:23.354Z,995.09
2018-03-28T09:17:23.336Z,995.05
2018-03-28T09:18:23.321Z,995.07
2018-03-28T09:19:23.304Z,995.09
2018-03-28T09:20:23.352Z,995.05
2018-03-28T09:21:23.272Z,995.08
2018-03-28T09:22:23.256Z,995.05
2018-03-28T09:23:23.254Z,995.07
2018-03-28T09:24:23.228Z,995.04
2018-03-28T09:25:23.210Z,995.08
2018-03-28T09:26:23.190Z,995.05
2018-03-28T09:27:23.176Z,995.02
2018-03-28T09:28:23.160Z,995.03
2018-03-28T09:29:23.144Z,994.96
2018-03-28T09:30:23.138Z,994.95
2018-03-28T09:31:23.113Z,994.96
2018-03-28T09:32:23.097Z,994.87
2018-03-28T09:33:23.087Z,994.92
2018-03-28T09:34:23.067Z,994.91
2018-03-28T09:35:23.051Z,994.85
2018-03-28T09:36:23.034Z,994.86
2018-03-28T09:37:23.020Z,994.92
2018-03-28T09:38:23.005Z,994.91
2018-03-28T09:39:22.989Z,994.95
2018-03-28T09:40:22.972Z,994.95
2018-03-28T09:41:22.958Z,994.91
2018-03-28T09:42:22.945Z,994.92
2018-03-28T09:43:22.934Z,994.91
2018-03-28T09:44:22.910Z,994.88
2018-03-28T09:45:22.897Z,994.87
2018-03-28T09:46:22.881Z,994.84
2018-03-28T09:47:22.866Z,994.82
2018-03-28T09:48:22.850Z,994.86
2018-03-28T09:49:22.835Z,994.89
2018-03-28T09:50:22.822Z,994.84
2018-03-28T09:51:22.803Z,994.9
2018-03-28T09:52:22.788Z,994.9
2018-03-28T09:53:22.774Z,994.89
2018-03-28T09:54:22.757Z,994.89
2018-03-28T09:55:22.741Z,994.85
2018-03-28T09:56:22.735Z,994.82
2018-03-28T09:57:22.719Z,994.82
2018-03-28T09:58:22.702Z,994.82
2018-03-28T09:59:22.679Z,994.84
2018-03-28T10:00:22.666Z,994.8
2018-03-28T10:01:22.654Z,994.82
2018-03-28T10:02:22.635Z,994.8
2018-03-28T10:03:22.631Z,994.78
2018-03-28T10:04:22.820Z,994.78
2018-03-28T10:05:22.591Z,994.79
2018-03-28T10:06:22.576Z,994.78
2018-03-28T10:07:22.562Z,994.83
2018-03-28T10:08:22.544Z,994.86
2018-03-28T10:09:22.527Z,994.86
2018-03-28T10:10:22.515Z,994.84
2018-03-28T10:11:22.500Z,994.8
2018-03-28T10:12:22.491Z,994.74
2018-03-28T10:13:22.478Z,994.78
2018-03-28T10:14:22.453Z,994.8
2018-03-28T10:15:22.442Z,994.77
2018-03-28T10:16:22.424Z,994.78
2018-03-28T10:17:22.408Z,994.78
2018-03-28T10:18:22.391Z,994.78
2018-03-28T10:19:22.376Z,994.8
2018-03-28T10:20:22.370Z,994.81
2018-03-28T10:21:22.345Z,994.76
2018-03-28T10:22:22.331Z,994.76
2018-03-28T10:23:22.317Z,994.77
2018-03-28T10:24:22.300Z,994.75
2018-03-28T10:25:22.287Z,994.77
2018-03-28T10:26:22.279Z,994.78
2018-03-28T10:27:22.257Z,994.73
2018-03-28T10:28:22.239Z,994.71
2018-03-28T10:29:22.224Z,994.71
2018-03-28T10:30:22.214Z,994.67
2018-03-28T10:31:22.194Z,994.68
2018-03-28T10:32:22.180Z,994.7
2018-03-28T10:33:22.167Z,994.68
2018-03-28T10:34:22.155Z,994.73
2018-03-28T10:35:22.137Z,994.67
2018-03-28T10:36:22.125Z,994.65
2018-03-28T10:37:22.109Z,994.63
2018-03-28T10:38:22.093Z,994.62
2018-03-28T10:39:22.078Z,994.63
2018-03-28T10:40:22.088Z,994.6
2018-03-28T10:41:22.050Z,994.56
2018-03-28T10:42:22.036Z,994.54
2018-03-28T10:43:22.020Z,994.53
2018-03-28T10:44:22.006Z,994.51
2018-03-28T10:45:22.031Z,994.44
2018-03-28T10:46:21.979Z,994.5
2018-03-28T10:47:21.964Z,994.5
2018-03-28T10:48:21.951Z,994.48
2018-03-28T10:49:21.935Z,994.47
2018-03-28T10:50:21.926Z,994.45
2018-03-28T10:51:22.006Z,994.39
2018-03-28T10:52:21.898Z,994.36
2018-03-28T10:53:21.878Z,994.35
2018-03-28T10:54:21.866Z,994.28
2018-03-28T10:55:21.860Z,994.27
2018-03-28T10:56:21.839Z,994.31
2018-03-28T10:57:21.849Z,994.27
2018-03-28T10:58:21.813Z,994.28
2018-03-28T10:59:21.803Z,994.27
2018-03-28T11:00:21.785Z,994.28
2018-03-28T11:01:21.768Z,994.27
2018-03-28T11:02:21.774Z,994.31
2018-03-28T11:03:21.745Z,994.29
2018-03-28T11:04:21.776Z,994.29
2018-03-28T11:05:21.725Z,994.28
2018-03-28T11:06:21.707Z,994.25
2018-03-28T11:07:21.686Z,994.27
2018-03-28T11:08:21.668Z,994.22
2018-03-28T11:09:21.750Z,994.21
2018-03-28T11:10:21.654Z,994.12
2018-03-28T11:11:21.627Z,994.14
2018-03-28T11:12:21.614Z,994.11
2018-03-28T11:13:21.625Z,994.09
2018-03-28T11:14:21.587Z,994.04
2018-03-28T11:15:21.569Z,994.05
2018-03-28T11:16:21.556Z,994.03
2018-03-28T11:17:21.542Z,994.02
2018-03-28T11:18:21.525Z,994.02
2018-03-28T11:19:21.510Z,994
2018-03-28T11:20:21.616Z,993.95
2018-03-28T11:21:21.528Z,993.92
2018-03-28T11:22:21.515Z,993.89
2018-03-28T11:23:21.450Z,993.89
2018-03-28T11:24:21.437Z,993.86
2018-03-28T11:25:21.426Z,993.82
2018-03-28T11:26:21.407Z,993.82
2018-03-28T11:27:21.402Z,993.79
2018-03-28T11:28:21.384Z,993.79
2018-03-28T11:29:21.362Z,993.79
2018-03-28T11:30:21.346Z,993.75
2018-03-28T11:31:21.332Z,993.68
2018-03-28T11:32:21.318Z,993.7
2018-03-28T11:33:21.302Z,993.7
2018-03-28T11:34:21.287Z,993.69
2018-03-28T11:35:21.271Z,993.64
2018-03-28T11:36:21.256Z,993.61
2018-03-28T11:37:21.241Z,993.57
2018-03-28T11:38:21.226Z,993.56
2018-03-28T11:39:21.210Z,993.54
2018-03-28T11:40:21.195Z,993.48
2018-03-28T11:41:21.179Z,993.47
2018-03-28T11:42:21.164Z,993.5
2018-03-28T11:43:21.151Z,993.44
2018-03-28T11:44:21.132Z,993.45
2018-03-28T11:45:21.121Z,993.46
2018-03-28T11:46:21.102Z,993.43
2018-03-28T11:47:21.088Z,993.41
2018-03-28T11:48:21.071Z,993.39
2018-03-28T11:49:21.085Z,993.42
2018-03-28T11:50:21.042Z,993.39
2018-03-28T11:51:21.026Z,993.39
2018-03-28T11:52:21.012Z,993.43
2018-03-28T11:53:20.994Z,993.38
2018-03-28T11:54:20.978Z,993.34
2018-03-28T11:55:20.967Z,993.34
2018-03-28T11:56:20.946Z,993.33
2018-03-28T11:57:20.932Z,993.3
2018-03-28T11:58:20.975Z,993.28
2018-03-28T11:59:20.906Z,993.26
2018-03-28T12:00:21.010Z,993.27
2018-03-28T12:01:20.873Z,993.29
2018-03-28T12:02:20.853Z,993.23
2018-03-28T12:03:20.835Z,993.26
2018-03-28T12:04:20.829Z,993.23
2018-03-28T12:05:20.806Z,993.16
2018-03-28T12:06:20.792Z,993.14
2018-03-28T12:07:20.778Z,993.16
2018-03-28T12:08:20.762Z,993.09
2018-03-28T12:09:20.753Z,993.08
2018-03-28T12:10:20.730Z,993.02
2018-03-28T12:11:20.720Z,993.03
2018-03-28T12:12:20.698Z,992.99
2018-03-28T12:13:20.687Z,992.98
2018-03-28T12:14:20.750Z,993.04
2018-03-28T12:15:20.656Z,993.02
2018-03-28T12:16:20.636Z,993.02
2018-03-28T12:17:20.618Z,993.01
2018-03-28T12:18:20.604Z,992.96
2018-03-28T12:19:20.588Z,992.94
2018-03-28T12:20:20.583Z,992.92
2018-03-28T12:21:20.562Z,992.87
2018-03-28T12:22:20.544Z,992.81
2018-03-28T12:23:20.526Z,992.85
2018-03-28T12:24:20.510Z,992.78
2018-03-28T12:25:20.494Z,992.77
2018-03-28T12:26:20.478Z,992.74
2018-03-28T12:27:20.462Z,992.76
2018-03-28T12:28:20.454Z,992.68
2018-03-28T12:29:20.431Z,992.67
2018-03-28T12:30:20.414Z,992.64